Time;durP1;ratioP1;P1;durP2;ratioP2;P2;SDS_P1;SDS_P2;PMS_P1;PMS_P2;Temp;Humidity;BMP_temperature;BMP_pressure;BME280_temperature;BME280_humidity;BME280_pressure;Samples;Min_cycle;Max_cycle;Signal;HPM_P1;HPM_P2
2022/10/16 00:01:18;;;;;;;6.50;1.50;;;16.30;99.90;;;;;;4962713;28;20039;-67
2022/10/16 00:03:45;;;;;;;6.25;1.80;;;15.90;99.90;;;;;;4952753;29;20409;-67
2022/10/16 00:06:11;;;;;;;6.45;1.45;;;15.80;99.90;;;;;;4937144;29;20047;-67
2022/10/16 00:08:38;;;;;;;5.55;1.50;;;16.20;99.90;;;;;;4967839;28;20043;-67
2022/10/16 00:11:05;;;;;;;6.78;1.80;;;15.20;99.90;;;;;;4952808;29;20122;-67
2022/10/16 00:13:32;;;;;;;8.85;1.30;;;16.30;99.90;;;;;;4952477;29;20130;-67
2022/10/16 00:15:59;;;;;;;8.68;1.67;;;16.30;99.90;;;;;;4952429;29;20043;-67
2022/10/16 00:18:25;;;;;;;10.93;1.77;;;16.30;99.90;;;;;;4947137;29;20110;-67
2022/10/16 00:20:51;;;;;;;9.88;2.28;;;16.20;99.90;;;;;;4952479;29;20564;-67
2022/10/16 00:23:17;;;;;;;7.57;1.83;;;15.20;99.90;;;;;;4952213;29;20051;-67
2022/10/16 00:25:42;;;;;;;7.43;1.83;;;15.10;99.90;;;;;;4952461;29;20471;-67
2022/10/16 00:28:08;;;;;;;8.50;1.95;;;14.90;99.90;;;;;;4952195;29;20110;-67
2022/10/16 00:30:37;;;;;;;5.68;1.60;;;14.90;99.90;;;;;;4952336;29;20485;-67
2022/10/16 00:33:02;;;;;;;7.20;1.33;;;14.90;99.90;;;;;;4936019;29;20126;-68
2022/10/16 00:35:28;;;;;;;12.00;1.73;;;15.10;99.90;;;;;;4952160;29;20078;-67
2022/10/16 00:37:54;;;;;;;6.35;2.20;;;16.00;99.90;;;;;;4952411;29;20051;-67
2022/10/16 00:40:20;;;;;;;6.18;1.70;;;15.00;99.90;;;;;;4952772;29;20051;-67
2022/10/16 00:42:45;;;;;;;4.78;1.40;;;14.70;99.90;;;;;;4935264;29;20046;-67
2022/10/16 00:45:11;;;;;;;7.15;1.50;;;15.80;99.90;;;;;;4951339;29;20126;-67
2022/10/16 00:47:47;;;;;;;11.48;1.83;;;15.10;99.90;;;;;;4952190;29;20046;-67
2022/10/16 00:50:20;;;;;;;8.95;1.70;;;16.00;99.90;;;;;;4951253;29;20286;-67
2022/10/16 00:52:49;;;;;;;6.88;2.20;;;16.10;99.90;;;;;;4951071;28;20118;-67
2022/10/16 00:55:16;;;;;;;11.15;1.65;;;16.10;99.90;;;;;;4951983;29;20071;-67
2022/10/16 00:57:43;;;;;;;8.40;1.95;;;16.10;99.90;;;;;;4936448;29;20531;-67
2022/10/16 01:00:10;;;;;;;6.72;1.55;;;15.20;99.90;;;;;;4951659;29;20087;-67
2022/10/16 01:02:36;;;;;;;2.92;1.38;;;16.20;99.90;;;;;;4951892;29;20062;-68
2022/10/16 01:05:03;;;;;;;9.23;1.65;;;16.30;99.90;;;;;;4936070;29;20155;-67
2022/10/16 01:07:50;;;;;;;8.32;2.47;;;15.80;99.90;;;;;;4952241;29;20137;-67
2022/10/16 01:10:26;;;;;;;3.97;1.45;;;16.20;99.90;;;;;;4935960;29;20114;-67
2022/10/16 01:13:00;;;;;;;4.55;1.50;;;15.20;99.90;;;;;;4951490;29;20043;-67
2022/10/16 01:15:48;;;;;;;4.35;1.35;;;15.50;99.90;;;;;;4948742;29;20497;-67
2022/10/16 01:18:29;;;;;;;6.88;1.40;;;16.30;99.90;;;;;;4936549;29;20073;-67
2022/10/16 01:21:02;;;;;;;3.30;1.27;;;15.60;99.90;;;;;;4951331;29;20389;-68
2022/10/16 01:23:44;;;;;;;4.50;1.70;;;15.30;99.90;;;;;;4934195;29;20047;-67
2022/10/16 01:26:18;;;;;;;10.63;1.83;;;15.70;99.90;;;;;;4952125;29;20065;-67
2022/10/16 01:28:55;;;;;;;4.50;1.40;;;15.40;99.90;;;;;;4951789;29;20043;-68
2022/10/16 01:31:25;;;;;;;5.45;1.50;;;15.40;99.90;;;;;;4951462;29;20516;-68
2022/10/16 01:34:17;;;;;;;10.70;1.92;;;16.30;99.90;;;;;;4951244;29;20047;-68
2022/10/16 01:36:52;;;;;;;3.75;1.25;;;15.70;99.90;;;;;;4951255;29;20086;-67
2022/10/16 01:39:22;;;;;;;5.75;1.60;;;15.50;99.90;;;;;;4951544;29;20054;-67
2022/10/16 01:42:03;;;;;;;5.03;1.60;;;16.50;99.90;;;;;;4951329;29;20074;-67
2022/10/16 01:44:33;;;;;;;7.75;1.70;;;15.50;99.90;;;;;;4949698;29;20070;-67
2022/10/16 01:47:00;;;;;;;8.27;1.67;;;16.00;99.90;;;;;;4950967;29;20035;-67
2022/10/16 01:49:30;;;;;;;7.20;1.55;;;15.20;99.90;;;;;;4950886;29;20039;-68
2022/10/16 01:51:58;;;;;;;5.85;1.27;;;16.10;99.90;;;;;;4951136;29;20051;-69
2022/10/16 01:54:28;;;;;;;6.13;1.45;;;15.30;99.90;;;;;;4935130;29;20098;-69
2022/10/16 01:56:56;;;;;;;6.53;1.40;;;15.00;99.90;;;;;;4951702;29;20089;-68
2022/10/16 01:59:25;;;;;;;10.82;1.73;;;16.50;99.90;;;;;;4935910;29;20039;-69
2022/10/16 02:01:55;;;;;;;5.38;1.52;;;15.00;99.90;;;;;;4934988;29;20063;-69
2022/10/16 02:04:29;;;;;;;6.50;1.73;;;15.00;99.90;;;;;;4953397;28;20497;-69
2022/10/16 02:06:55;;;;;;;6.70;1.75;;;14.90;99.90;;;;;;4953504;29;20035;-69
2022/10/16 02:09:21;;;;;;;6.80;1.67;;;14.60;99.90;;;;;;4920386;29;20055;-69
2022/10/16 02:11:48;;;;;;;7.40;1.52;;;16.30;99.90;;;;;;4925008;29;20082;-68
2022/10/16 02:14:14;;;;;;;7.45;1.63;;;14.90;99.90;;;;;;4954929;29;20040;-68
2022/10/16 02:16:46;;;;;;;11.88;1.70;;;16.20;99.90;;;;;;4953695;29;20547;-68
2022/10/16 02:19:16;;;;;;;8.48;1.55;;;16.00;99.90;;;;;;4947476;29;20043;-69
2022/10/16 02:21:59;;;;;;;11.50;2.35;;;14.50;99.90;;;;;;4935959;29;20039;-69
2022/10/16 02:24:51;;;;;;;4.63;1.63;;;16.20;99.90;;;;;;4935550;29;20048;-68
2022/10/16 02:27:29;;;;;;;6.22;2.10;;;15.50;99.90;;;;;;4936032;29;20036;-68
2022/10/16 02:30:07;;;;;;;8.13;1.80;;;16.00;99.90;;;;;;4935877;29;20043;-68
2022/10/16 02:32:35;;;;;;;11.55;2.00;;;16.30;99.90;;;;;;4935627;29;20035;-68
2022/10/16 02:35:02;;;;;;;7.03;1.80;;;15.40;99.90;;;;;;4935623;29;20058;-68
2022/10/16 02:37:28;;;;;;;6.28;1.95;;;14.50;99.90;;;;;;4919495;29;20046;-68
2022/10/16 02:39:55;;;;;;;12.77;2.30;;;15.30;99.90;;;;;;4935721;29;20043;-68
2022/10/16 02:42:27;;;;;;;7.03;1.90;;;15.20;99.90;;;;;;4919474;29;20398;-68
2022/10/16 02:44:52;;;;;;;6.32;1.92;;;15.60;99.90;;;;;;4935826;29;20048;-69
2022/10/16 02:47:18;;;;;;;6.43;2.50;;;14.70;99.90;;;;;;4934914;29;20062;-68
2022/10/16 02:49:43;;;;;;;7.25;1.95;;;15.10;99.90;;;;;;4935172;29;20497;-68
2022/10/16 02:52:09;;;;;;;6.25;2.35;;;14.70;99.90;;;;;;4936971;29;20044;-69
2022/10/16 02:54:34;;;;;;;5.13;2.15;;;15.30;99.90;;;;;;4919288;29;20051;-69
2022/10/16 02:57:00;;;;;;;5.03;2.20;;;16.10;99.90;;;;;;4935250;29;20493;-69
2022/10/16 02:59:26;;;;;;;6.65;2.35;;;15.90;99.90;;;;;;4930504;29;20482;-69
2022/10/16 03:01:51;;;;;;;5.05;1.90;;;15.50;99.90;;;;;;4933335;29;20039;-68
2022/10/16 03:04:17;;;;;;;4.78;1.80;;;14.70;99.90;;;;;;4932009;29;20048;-68
2022/10/16 03:06:42;;;;;;;8.82;2.15;;;16.00;99.90;;;;;;4934773;29;20402;-69
2022/10/16 03:09:08;;;;;;;4.13;1.63;;;15.90;99.90;;;;;;4935460;29;20045;-68
2022/10/16 03:11:33;;;;;;;6.40;2.20;;;15.20;99.90;;;;;;4934996;29;20107;-68
2022/10/16 03:13:59;;;;;;;4.07;1.92;;;16.00;99.90;;;;;;4934228;29;20114;-68
2022/10/16 03:16:24;;;;;;;4.53;2.10;;;14.90;99.90;;;;;;4933101;29;20404;-69
2022/10/16 03:18:50;;;;;;;4.30;1.80;;;14.80;99.90;;;;;;4950773;29;20292;-69
2022/10/16 03:21:16;;;;;;;5.88;2.03;;;14.80;99.90;;;;;;4938137;29;20047;-68
2022/10/16 03:23:42;;;;;;;4.97;1.92;;;15.60;99.90;;;;;;4937243;29;20099;-69
2022/10/16 03:26:07;;;;;;;3.55;1.52;;;15.00;99.90;;;;;;4954066;29;20070;-68
2022/10/16 03:28:33;;;;;;;2.88;1.50;;;14.90;99.90;;;;;;4954015;29;20090;-69
2022/10/16 03:30:58;;;;;;;5.20;2.17;;;14.80;99.90;;;;;;4954200;29;20035;-69
2022/10/16 03:33:24;;;;;;;6.88;1.92;;;15.70;99.90;;;;;;4953259;29;20134;-68
2022/10/16 03:35:54;;;;;;;4.70;1.80;;;16.00;99.90;;;;;;4938215;29;20440;-69
2022/10/16 03:38:21;;;;;;;3.63;1.65;;;14.90;99.90;;;;;;4953387;29;20143;-69
2022/10/16 03:40:47;;;;;;;4.60;1.45;;;15.80;99.90;;;;;;4953884;29;20139;-68
2022/10/16 03:43:12;;;;;;;2.63;1.35;;;15.90;99.90;;;;;;4953322;29;20142;-69
2022/10/16 03:45:38;;;;;;;3.30;1.38;;;15.90;99.90;;;;;;4937226;29;20068;-68
2022/10/16 03:48:03;;;;;;;3.83;1.60;;;14.90;99.90;;;;;;4953451;29;20035;-68
2022/10/16 03:50:29;;;;;;;6.32;2.13;;;16.00;99.90;;;;;;4952512;29;20031;-68
2022/10/16 03:52:55;;;;;;;5.85;1.92;;;14.80;99.90;;;;;;4953395;29;20126;-68
2022/10/16 03:55:21;;;;;;;3.25;1.42;;;15.90;99.90;;;;;;4937490;29;20119;-68
2022/10/16 03:57:46;;;;;;;4.82;1.33;;;16.00;99.90;;;;;;4939876;29;20641;-69
2022/10/16 04:00:12;;;;;;;4.85;2.00;;;15.30;99.90;;;;;;4922811;29;20039;-68
2022/10/16 04:02:39;;;;;;;6.65;1.40;;;15.10;99.90;;;;;;4952800;29;20046;-69
2022/10/16 04:05:04;;;;;;;5.47;1.63;;;14.90;99.90;;;;;;4952861;29;20039;-69
2022/10/16 04:07:30;;;;;;;8.90;1.98;;;15.90;99.90;;;;;;4936890;29;20374;-69
2022/10/16 04:09:56;;;;;;;4.93;1.52;;;16.20;99.90;;;;;;4953034;29;20035;-69
2022/10/16 04:12:22;;;;;;;6.07;1.98;;;14.80;99.90;;;;;;4952293;29;20031;-69
2022/10/16 04:14:48;;;;;;;4.22;1.60;;;15.70;99.90;;;;;;4952463;29;20097;-68
2022/10/16 04:17:13;;;;;;;5.10;1.50;;;14.80;99.90;;;;;;4936498;29;20055;-68
2022/10/16 04:19:39;;;;;;;4.85;1.73;;;14.80;99.90;;;;;;4936822;29;20039;-69
2022/10/16 04:22:04;;;;;;;5.72;1.83;;;14.80;99.90;;;;;;4935694;29;20482;-68
2022/10/16 04:24:30;;;;;;;2.58;1.50;;;16.10;99.90;;;;;;4952628;29;20063;-68
2022/10/16 04:26:56;;;;;;;4.43;1.77;;;14.90;99.90;;;;;;4952517;28;20071;-68
2022/10/16 04:29:22;;;;;;;6.75;1.42;;;14.80;99.90;;;;;;4952603;29;20061;-68
2022/10/16 04:31:47;;;;;;;5.32;1.70;;;15.60;99.90;;;;;;4952275;29;20039;-68
2022/10/16 04:34:13;;;;;;;5.78;1.58;;;16.10;99.90;;;;;;4936399;29;20133;-69
2022/10/16 04:36:38;;;;;;;3.33;1.65;;;14.80;99.90;;;;;;4949505;29;20448;-68
2022/10/16 04:39:04;;;;;;;5.07;2.10;;;14.90;99.90;;;;;;4950834;29;20043;-68
2022/10/16 04:41:29;;;;;;;6.25;1.63;;;14.70;99.90;;;;;;4952829;29;20489;-69
2022/10/16 04:43:55;;;;;;;11.45;2.00;;;16.00;99.90;;;;;;4951835;29;20122;-68
2022/10/16 04:46:20;;;;;;;4.18;1.67;;;16.00;99.90;;;;;;4952107;29;20116;-68
2022/10/16 04:48:46;;;;;;;10.40;1.85;;;14.80;99.90;;;;;;4952030;29;20035;-68
2022/10/16 04:51:12;;;;;;;6.70;2.00;;;14.70;99.90;;;;;;4952092;29;20047;-68
2022/10/16 04:53:38;;;;;;;6.22;1.95;;;14.80;99.90;;;;;;4936002;29;20042;-68
2022/10/16 04:56:04;;;;;;;8.32;1.75;;;15.40;99.90;;;;;;4952647;29;20082;-68
2022/10/16 04:58:29;;;;;;;7.75;1.80;;;15.70;99.90;;;;;;4952221;29;20047;-68
2022/10/16 05:00:55;;;;;;;10.55;1.95;;;14.80;99.90;;;;;;4951914;29;20074;-68
2022/10/16 05:03:20;;;;;;;8.93;1.60;;;14.80;99.90;;;;;;4936011;29;20552;-68
2022/10/16 05:05:47;;;;;;;8.20;1.70;;;16.00;99.90;;;;;;4935603;29;20442;-68
2022/10/16 05:08:16;;;;;;;5.20;1.40;;;16.00;99.90;;;;;;4952122;29;20082;-68
2022/10/16 05:10:43;;;;;;;12.40;2.05;;;15.30;99.90;;;;;;4952480;29;20481;-68
2022/10/16 05:13:09;;;;;;;4.97;1.50;;;16.00;99.90;;;;;;4951715;29;20058;-68
2022/10/16 05:15:35;;;;;;;4.70;1.55;;;15.50;99.90;;;;;;4951409;29;20504;-68
2022/10/16 05:18:00;;;;;;;5.20;1.50;;;15.00;99.90;;;;;;4951067;29;20111;-68
2022/10/16 05:20:26;;;;;;;5.90;2.55;;;15.50;99.90;;;;;;4935760;29;20504;-68
2022/10/16 05:22:51;;;;;;;3.70;1.27;;;15.30;99.90;;;;;;4951615;29;20043;-68
2022/10/16 05:25:17;;;;;;;3.97;1.80;;;14.70;99.90;;;;;;4951393;29;20067;-68
2022/10/16 05:27:43;;;;;;;7.30;1.90;;;14.90;99.90;;;;;;4951729;29;20513;-68
2022/10/16 05:30:09;;;;;;;3.80;2.13;;;15.40;99.90;;;;;;4951786;29;20050;-68
2022/10/16 05:32:34;;;;;;;9.52;2.35;;;15.20;99.90;;;;;;4951585;29;20408;-67
2022/10/16 05:35:00;;;;;;;6.82;2.15;;;16.20;99.90;;;;;;4949193;29;20126;-67
2022/10/16 05:37:27;;;;;;;5.78;1.80;;;14.80;99.90;;;;;;4947736;29;20043;-67
2022/10/16 05:39:53;;;;;;;5.60;2.30;;;14.60;99.90;;;;;;4951805;29;20046;-68
2022/10/16 05:42:18;;;;;;;3.88;1.70;;;14.80;99.90;;;;;;4951302;29;20039;-68
2022/10/16 05:44:44;;;;;;;4.65;1.80;;;14.50;99.90;;;;;;4951474;29;20384;-67
2022/10/16 05:47:12;;;;;;;7.43;2.22;;;14.50;99.90;;;;;;4950478;29;20048;-68
2022/10/16 05:49:37;;;;;;;7.57;2.42;;;14.40;99.90;;;;;;4951043;29;20039;-68
2022/10/16 05:52:03;;;;;;;7.85;2.95;;;15.80;99.90;;;;;;4951330;29;20453;-77
2022/10/16 05:54:28;;;;;;;4.72;2.28;;;14.40;99.90;;;;;;4950996;29;20133;-69
2022/10/16 05:56:54;;;;;;;8.57;2.55;;;15.90;99.90;;;;;;4951140;29;20489;-68
2022/10/16 05:59:19;;;;;;;8.02;2.55;;;14.60;99.90;;;;;;4951561;29;20098;-68
2022/10/16 06:01:45;;;;;;;6.20;2.00;;;15.80;99.90;;;;;;4951295;29;20043;-68
2022/10/16 06:04:10;;;;;;;4.55;1.98;;;15.70;99.90;;;;;;4950686;29;20059;-67
2022/10/16 06:06:36;;;;;;;16.42;2.80;;;14.50;99.90;;;;;;4950800;29;20074;-68
2022/10/16 06:09:02;;;;;;;11.77;2.70;;;15.80;99.90;;;;;;4951384;29;20058;-68
2022/10/16 06:11:31;;;;;;;7.07;1.95;;;15.60;99.90;;;;;;4951345;29;20039;-68
2022/10/16 06:13:59;;;;;;;6.38;1.95;;;15.10;99.90;;;;;;4951144;29;20047;-67
2022/10/16 06:16:26;;;;;;;6.80;2.22;;;14.50;99.90;;;;;;4950849;29;20493;-67
2022/10/16 06:18:53;;;;;;;11.95;2.25;;;15.50;99.90;;;;;;4950866;29;20535;-67
2022/10/16 06:21:21;;;;;;;5.60;2.00;;;15.00;99.90;;;;;;4951340;28;20559;-67
2022/10/16 06:23:47;;;;;;;3.20;1.80;;;15.20;99.90;;;;;;4951197;29;20449;-68
2022/10/16 06:26:15;;;;;;;5.32;1.90;;;15.70;99.90;;;;;;4950882;29;20047;-67
2022/10/16 06:28:41;;;;;;;5.78;2.30;;;14.80;99.90;;;;;;4951016;29;20089;-67
2022/10/16 06:31:08;;;;;;;7.60;1.98;;;14.90;99.90;;;;;;4951216;29;20070;-67
2022/10/16 06:33:34;;;;;;;5.95;1.90;;;14.80;99.90;;;;;;4951148;29;20043;-68
2022/10/16 06:36:02;;;;;;;8.27;2.13;;;15.90;99.90;;;;;;4951067;29;20077;-68
2022/10/16 06:38:27;;;;;;;8.60;2.10;;;16.00;99.90;;;;;;4967273;28;20083;-68
2022/10/16 06:40:53;;;;;;;2.88;1.52;;;15.90;99.90;;;;;;4951241;29;20089;-68
2022/10/16 06:43:19;;;;;;;8.38;2.22;;;16.00;99.90;;;;;;4951058;29;20079;-68
2022/10/16 06:45:51;;;;;;;6.57;1.80;;;15.70;99.90;;;;;;4950984;29;20078;-68
2022/10/16 06:48:17;;;;;;;7.22;1.83;;;14.70;99.90;;;;;;4959245;28;20071;-68
2022/10/16 06:50:42;;;;;;;8.88;2.25;;;15.50;99.90;;;;;;4953381;28;20071;-67
2022/10/16 06:53:08;;;;;;;6.00;1.55;;;14.80;99.90;;;;;;4938313;29;20050;-68
2022/10/16 06:55:33;;;;;;;6.90;2.00;;;14.90;99.90;;;;;;4953985;29;20039;-68
2022/10/16 06:57:59;;;;;;;6.18;1.92;;;15.00;99.90;;;;;;4953817;29;20497;-68
2022/10/16 07:00:24;;;;;;;7.13;1.85;;;15.80;99.90;;;;;;4954135;29;20043;-68
2022/10/16 07:02:50;;;;;;;5.38;1.98;;;16.20;99.90;;;;;;4953993;29;20059;-68
2022/10/16 07:05:16;;;;;;;6.80;2.00;;;16.10;99.90;;;;;;4954006;29;20079;-68
2022/10/16 07:07:41;;;;;;;5.80;1.80;;;16.00;99.90;;;;;;4954053;29;20501;-68
2022/10/16 07:10:08;;;;;;;3.85;1.95;;;15.00;99.90;;;;;;4954127;29;20047;-68
2022/10/16 07:12:33;;;;;;;7.38;2.55;;;14.90;99.90;;;;;;4954120;29;20031;-68
2022/10/16 07:14:59;;;;;;;7.47;1.98;;;16.50;99.90;;;;;;4953819;29;20382;-68
2022/10/16 07:17:24;;;;;;;6.65;1.88;;;16.60;99.90;;;;;;4953543;29;20528;-68
2022/10/16 07:19:52;;;;;;;8.80;1.90;;;15.70;99.90;;;;;;4954192;29;20553;-68
2022/10/16 07:22:18;;;;;;;9.60;2.28;;;16.50;99.90;;;;;;4953689;29;20039;-68
2022/10/16 07:24:44;;;;;;;5.43;1.88;;;15.20;99.90;;;;;;4953583;29;20035;-68
2022/10/16 07:27:10;;;;;;;7.07;1.90;;;15.30;99.90;;;;;;4953355;29;20069;-68
2022/10/16 07:29:35;;;;;;;6.95;1.98;;;16.40;99.90;;;;;;4953953;29;20126;-67
2022/10/16 07:32:01;;;;;;;11.80;2.45;;;16.30;99.90;;;;;;4937642;29;20047;-67
2022/10/16 07:34:27;;;;;;;7.50;2.10;;;15.20;99.90;;;;;;4953346;29;20051;-68
2022/10/16 07:36:53;;;;;;;7.30;2.25;;;16.40;99.90;;;;;;4953522;29;20035;-68
2022/10/16 07:39:18;;;;;;;4.30;1.52;;;15.30;99.90;;;;;;4953732;29;20073;-68
2022/10/16 07:41:44;;;;;;;7.20;2.22;;;15.80;99.90;;;;;;4953667;29;20036;-68
2022/10/16 07:44:10;;;;;;;8.40;2.17;;;15.50;99.90;;;;;;4953208;29;20099;-68
2022/10/16 07:46:35;;;;;;;5.07;1.67;;;15.90;99.90;;;;;;4953341;29;20511;-69
2022/10/16 07:49:02;;;;;;;9.45;2.85;;;15.80;99.90;;;;;;4936983;29;20498;-67
2022/10/16 07:51:28;;;;;;;7.03;2.38;;;16.70;99.90;;;;;;4953305;29;20083;-69
2022/10/16 07:53:54;;;;;;;10.13;2.38;;;15.90;99.90;;;;;;4950675;29;20082;-68
2022/10/16 07:56:21;;;;;;;7.78;1.80;;;16.40;99.90;;;;;;4952463;29;20036;-68
2022/10/16 07:58:49;;;;;;;7.78;2.10;;;15.50;99.90;;;;;;4952594;29;20629;-68
2022/10/16 08:01:16;;;;;;;5.90;1.75;;;16.30;99.90;;;;;;4936175;29;20039;-69
2022/10/16 08:03:43;;;;;;;9.80;2.05;;;16.30;99.90;;;;;;4952791;29;20486;-68
2022/10/16 08:06:09;;;;;;;9.10;1.85;;;16.30;99.90;;;;;;4953661;29;20478;-68
2022/10/16 08:08:35;;;;;;;9.23;2.17;;;15.80;99.90;;;;;;4952401;29;20035;-68
2022/10/16 08:11:03;;;;;;;12.70;2.20;;;15.90;99.90;;;;;;4953258;29;20051;-68
2022/10/16 08:13:29;;;;;;;10.55;2.40;;;15.80;99.90;;;;;;4952604;29;20047;-68
2022/10/16 08:15:55;;;;;;;14.82;3.17;;;17.00;99.90;;;;;;4953060;29;20544;-68
2022/10/16 08:18:20;;;;;;;15.73;2.65;;;17.00;99.90;;;;;;4952357;29;20134;-69
2022/10/16 08:20:46;;;;;;;14.25;3.22;;;17.40;99.90;;;;;;4952939;29;20089;-68
2022/10/16 08:23:13;;;;;;;14.63;2.78;;;17.20;99.90;;;;;;4952492;29;20059;-69
2022/10/16 08:25:39;;;;;;;21.20;3.58;;;17.40;99.90;;;;;;4952772;29;20046;-68
2022/10/16 08:28:10;;;;;;;19.15;3.47;;;18.10;99.90;;;;;;4947491;28;20046;-68
2022/10/16 08:30:36;;;;;;;15.55;2.85;;;16.80;99.90;;;;;;4952853;29;20478;-69
2022/10/16 08:33:03;;;;;;;16.63;3.13;;;17.20;99.90;;;;;;4952396;29;20107;-69
2022/10/16 08:35:28;;;;;;;11.88;2.95;;;17.50;99.90;;;;;;4952484;29;20043;-69
2022/10/16 08:37:54;;;;;;;11.02;2.45;;;17.10;99.90;;;;;;4952563;29;20116;-69
2022/10/16 08:40:24;;;;;;;17.33;2.78;;;17.40;99.90;;;;;;4951942;29;20118;-68
2022/10/16 08:43:21;;;;;;;10.32;2.30;;;18.30;99.90;;;;;;4952640;29;20035;-69
2022/10/16 08:46:22;;;;;;;11.45;2.30;;;18.40;99.90;;;;;;4968708;28;20047;-69
2022/10/16 08:48:53;;;;;;;11.10;2.58;;;17.80;99.90;;;;;;4951245;29;20027;-69
2022/10/16 08:51:32;;;;;;;10.68;2.65;;;18.50;99.90;;;;;;4951639;29;20524;-69
2022/10/16 08:54:16;;;;;;;9.13;2.47;;;18.80;99.90;;;;;;4945607;29;20408;-69
2022/10/16 08:56:42;;;;;;;13.27;2.95;;;17.90;99.90;;;;;;4952428;29;20051;-69
2022/10/16 08:59:11;;;;;;;10.25;1.90;;;18.20;99.90;;;;;;4951880;29;20122;-69
2022/10/16 09:01:44;;;;;;;11.77;2.50;;;18.00;99.90;;;;;;4968288;28;20521;-69
2022/10/16 09:04:25;;;;;;;13.20;2.58;;;18.20;99.90;;;;;;4967554;28;20035;-70
2022/10/16 09:07:04;;;;;;;18.35;2.65;;;18.80;99.90;;;;;;4935927;29;20039;-70
2022/10/16 09:09:55;;;;;;;14.55;2.63;;;18.80;99.90;;;;;;4952468;29;20039;-70
2022/10/16 09:12:51;;;;;;;13.07;2.67;;;18.80;99.90;;;;;;4951567;28;20058;-69
2022/10/16 09:15:21;;;;;;;15.38;2.92;;;18.40;99.90;;;;;;4936803;29;20099;-69
2022/10/16 09:17:59;;;;;;;19.20;3.92;;;18.40;99.90;;;;;;4940562;29;20126;-70
2022/10/16 09:20:40;;;;;;;25.08;4.45;;;18.30;99.90;;;;;;4951892;29;20153;-70
2022/10/16 09:23:17;;;;;;;21.73;3.90;;;18.40;99.90;;;;;;4946688;29;20119;-70
2022/10/16 09:25:45;;;;;;;29.85;4.65;;;18.20;99.90;;;;;;4950204;29;20493;-70
2022/10/16 09:28:11;;;;;;;29.27;4.18;;;18.40;99.90;;;;;;4951301;29;20031;-70
2022/10/16 09:30:39;;;;;;;23.30;4.00;;;18.30;99.90;;;;;;4935521;29;20094;-70
2022/10/16 09:33:06;;;;;;;26.60;4.05;;;18.30;99.90;;;;;;4951595;29;20508;-68
2022/10/16 09:35:49;;;;;;;25.95;4.40;;;18.30;99.90;;;;;;4951408;29;20459;-70
2022/10/16 09:38:25;;;;;;;21.42;4.25;;;18.10;99.90;;;;;;4951410;29;20420;-70
2022/10/16 09:40:52;;;;;;;20.83;3.67;;;18.30;99.90;;;;;;4951538;29;20047;-70
2022/10/16 09:43:30;;;;;;;17.67;3.00;;;18.10;99.90;;;;;;4951189;29;20043;-70
2022/10/16 09:46:00;;;;;;;19.42;3.85;;;17.90;99.90;;;;;;4951353;29;20047;-69
2022/10/16 09:48:34;;;;;;;13.30;3.40;;;17.90;99.90;;;;;;4950918;29;20043;-70
2022/10/16 09:51:03;;;;;;;19.77;3.50;;;17.80;99.90;;;;;;4951127;29;20043;-70
2022/10/16 09:53:41;;;;;;;19.80;3.42;;;17.90;99.90;;;;;;4935080;29;20043;-70
2022/10/16 09:56:09;;;;;;;23.63;3.55;;;17.90;99.90;;;;;;4932462;29;20090;-70
2022/10/16 09:58:35;;;;;;;17.40;3.92;;;17.90;99.90;;;;;;4941390;29;20498;-69
2022/10/16 10:01:01;;;;;;;21.15;3.47;;;18.00;99.90;;;;;;4947218;29;20046;-70
2022/10/16 10:03:39;;;;;;;19.60;3.15;;;17.90;99.90;;;;;;4951119;29;20054;-69
2022/10/16 10:06:26;;;;;;;20.42;3.65;;;17.90;99.90;;;;;;4917067;29;20518;-70
2022/10/16 10:08:58;;;;;;;25.48;3.47;;;18.00;99.90;;;;;;4944600;29;20039;-70
2022/10/16 10:11:57;;;;;;;22.30;3.85;;;18.10;99.90;;;;;;4951382;29;20069;-70
2022/10/16 10:14:44;;;;;;;19.20;3.83;;;17.90;99.90;;;;;;4925455;28;20066;-69
2022/10/16 10:17:16;;;;;;;26.05;3.90;;;17.90;99.90;;;;;;4950765;29;20094;-70
2022/10/16 10:19:48;;;;;;;23.60;3.92;;;18.00;99.90;;;;;;4950239;29;20051;-69
2022/10/16 10:22:45;;;;;;;20.73;3.38;;;18.10;99.90;;;;;;4933615;29;20480;-70
2022/10/16 10:25:11;;;;;;;24.42;4.28;;;17.90;99.90;;;;;;4946822;28;20067;-69
2022/10/16 10:27:39;;;;;;;22.85;3.92;;;18.10;99.90;;;;;;4938793;29;20162;-69
2022/10/16 10:30:08;;;;;;;21.15;3.67;;;18.00;99.90;;;;;;4938478;29;20035;-69
2022/10/16 10:32:53;;;;;;;23.00;3.63;;;18.10;99.90;;;;;;4954364;29;20065;-69
2022/10/16 10:35:33;;;;;;;19.33;3.70;;;18.20;99.90;;;;;;4954448;29;20042;-70
2022/10/16 10:38:10;;;;;;;20.33;3.38;;;18.10;99.90;;;;;;4954181;29;20035;-69
2022/10/16 10:40:59;;;;;;;19.42;3.80;;;18.20;99.90;;;;;;4970701;28;20031;-70
2022/10/16 10:43:33;;;;;;;19.83;4.38;;;18.40;99.90;;;;;;4954587;29;20174;-69
2022/10/16 10:46:04;;;;;;;21.23;3.90;;;18.40;99.90;;;;;;4953915;29;20050;-69
2022/10/16 10:48:45;;;;;;;14.70;3.13;;;18.20;99.90;;;;;;4953975;29;20412;-70
2022/10/16 10:51:19;;;;;;;17.65;3.63;;;18.30;99.90;;;;;;4950964;29;20039;-69
2022/10/16 10:53:59;;;;;;;16.10;3.53;;;18.30;99.90;;;;;;4953558;29;20042;-69
2022/10/16 10:56:27;;;;;;;23.63;3.45;;;18.30;99.90;;;;;;4938282;29;20051;-69
2022/10/16 10:59:08;;;;;;;19.38;3.47;;;18.20;99.90;;;;;;4954184;29;20043;-69
2022/10/16 11:01:51;;;;;;;18.60;3.85;;;18.30;99.90;;;;;;4953300;29;20094;-69
2022/10/16 11:04:40;;;;;;;22.90;3.60;;;18.10;99.90;;;;;;4953725;29;20082;-69
2022/10/16 11:07:27;;;;;;;17.73;3.05;;;18.00;99.90;;;;;;4954045;29;20061;-69
2022/10/16 11:10:05;;;;;;;19.00;3.65;;;18.20;99.90;;;;;;4954027;29;20031;-69
2022/10/16 11:12:39;;;;;;;17.92;3.15;;;18.10;99.90;;;;;;4951092;29;20094;-68
2022/10/16 11:15:16;;;;;;;21.83;3.90;;;18.10;99.90;;;;;;4953343;29;20489;-69
2022/10/16 11:17:51;;;;;;;20.17;3.45;;;18.00;99.90;;;;;;4953494;29;20055;-69
2022/10/16 11:20:22;;;;;;;21.50;3.85;;;18.20;99.90;;;;;;4953215;29;20039;-69
2022/10/16 11:23:11;;;;;;;16.33;3.25;;;18.20;99.90;;;;;;4953370;29;20069;-69
2022/10/16 11:25:38;;;;;;;21.42;3.45;;;18.20;99.90;;;;;;4953687;29;20110;-69
2022/10/16 11:28:07;;;;;;;19.98;3.60;;;18.10;99.90;;;;;;4953416;29;20114;-68
2022/10/16 11:31:05;;;;;;;14.07;2.55;;;18.10;99.90;;;;;;4953334;29;20039;-68
2022/10/16 11:33:39;;;;;;;23.13;3.47;;;18.00;99.90;;;;;;4953466;29;20070;-69
2022/10/16 11:36:17;;;;;;;23.10;3.33;;;18.00;99.90;;;;;;4964283;28;20077;-67
2022/10/16 11:38:53;;;;;;;21.05;4.45;;;18.00;99.90;;;;;;4937764;29;20051;-68
2022/10/16 11:41:26;;;;;;;21.27;3.28;;;18.10;99.90;;;;;;4938046;29;20047;-68
2022/10/16 11:44:21;;;;;;;17.30;3.10;;;18.20;99.90;;;;;;4953217;29;20090;-68
2022/10/16 11:46:58;;;;;;;10.80;2.97;;;18.00;99.90;;;;;;4899187;29;20147;-68
2022/10/16 11:49:26;;;;;;;21.48;3.28;;;18.00;99.90;;;;;;4927471;29;20512;-68
2022/10/16 11:52:18;;;;;;;16.67;3.10;;;18.00;99.90;;;;;;4951597;29;20063;-68
2022/10/16 11:54:53;;;;;;;17.67;2.90;;;17.90;99.90;;;;;;4952950;29;20043;-68
2022/10/16 11:57:45;;;;;;;18.38;3.00;;;17.80;99.90;;;;;;4953211;29;20047;-68
2022/10/16 12:00:22;;;;;;;18.15;3.25;;;17.90;99.90;;;;;;4952447;29;20436;-68
2022/10/16 12:03:13;;;;;;;15.80;3.15;;;17.80;99.90;;;;;;4952612;29;20047;-68
2022/10/16 12:05:57;;;;;;;19.17;3.17;;;17.80;99.90;;;;;;4952637;29;20070;-68
2022/10/16 12:08:23;;;;;;;23.73;3.10;;;17.80;99.90;;;;;;4952995;29;20505;-68
2022/10/16 12:10:52;;;;;;;14.20;2.70;;;17.80;99.90;;;;;;4952928;29;20067;-68
2022/10/16 12:13:30;;;;;;;15.43;3.00;;;17.80;99.90;;;;;;4953829;28;20043;-68
2022/10/16 12:16:14;;;;;;;21.45;2.88;;;17.90;99.90;;;;;;4952573;29;20051;-68
2022/10/16 12:18:42;;;;;;;22.33;3.55;;;17.90;99.90;;;;;;4952383;29;20055;-68
2022/10/16 12:21:10;;;;;;;17.42;3.03;;;17.80;99.90;;;;;;4952160;29;20039;-68
2022/10/16 12:23:46;;;;;;;20.15;3.00;;;17.90;99.90;;;;;;4952092;29;20493;-67
2022/10/16 12:26:12;;;;;;;11.82;3.00;;;18.00;99.90;;;;;;4952185;29;20054;-68
2022/10/16 12:28:38;;;;;;;19.00;2.92;;;17.80;99.90;;;;;;4937898;29;20035;-68
2022/10/16 12:31:12;;;;;;;19.23;3.22;;;17.70;99.90;;;;;;4952024;29;20070;-67
2022/10/16 12:33:41;;;;;;;17.77;3.03;;;17.70;99.90;;;;;;4952264;29;20404;-68
2022/10/16 12:36:16;;;;;;;21.38;3.17;;;17.70;99.90;;;;;;4953265;28;20378;-68
2022/10/16 12:38:50;;;;;;;20.15;3.15;;;17.70;99.90;;;;;;4952312;29;20078;-68
2022/10/16 12:41:33;;;;;;;16.98;2.65;;;17.80;99.90;;;;;;4936451;29;20401;-67
2022/10/16 12:44:01;;;;;;;16.77;2.50;;;17.70;99.90;;;;;;4936415;29;20125;-68
2022/10/16 12:46:29;;;;;;;13.80;2.80;;;17.70;99.90;;;;;;4952117;29;20051;-68
2022/10/16 12:49:13;;;;;;;15.18;3.13;;;17.60;99.90;;;;;;4951448;28;20157;-67
2022/10/16 12:51:40;;;;;;;19.52;3.53;;;17.70;99.90;;;;;;4951034;29;20070;-68
2022/10/16 12:54:27;;;;;;;15.75;2.88;;;17.70;99.90;;;;;;4933347;29;20612;-67
2022/10/16 12:57:24;;;;;;;18.08;3.03;;;17.50;99.90;;;;;;4924553;29;20071;-66
2022/10/16 13:00:17;;;;;;;19.23;3.17;;;17.70;99.90;;;;;;4948926;28;20527;-65